Latest Weather Observations for Cape Nelson

IDV60801

Issued at 3:03 pm EST Thursday 27 April 2017 (issued every 30 minutes, with the page automatically refreshed every 10 minutes)

About weather observations | Map of weather stations | Latest weather observations for VIC | Other Formats
Station Details ID: 090184 Name: CAPE NELSON LIGHTHOUSE Lat: -38.43 Lon: 141.54 Height: 45.4 m
Data from the previous 72 hours. | See also: Recent months at Cape Nelson
Date/Time
EST
Temp
°C
App
Temp
°C
Dew
Point
°C
Rel
Hum
%
Delta-T
°C
Wind Press
QNH
hPa
Press
MSL
hPa
Rain since
9am
mm
Dir  Spd
km/h
Gust
km/h
Spd
kts
Gust
kts
27/03:00pm 14.1 10.7 10.5 79 1.9 WNW 19 24 10 13 1023.5 1023.5 0.0
27/02:30pm 14.1 10.0 10.1 77 2.1 WNW 22 28 12 15 1023.7 1023.7 0.0
27/02:00pm 13.6 8.5 9.3 75 2.2 W 26 35 14 19 1023.9 1023.9 0.0
27/01:30pm 14.0 9.5 8.6 70 2.7 W 22 33 12 18 1024.1 1024.1 0.0
27/01:00pm 14.5 10.6 9.3 71 2.7 W 20 33 11 18 1024.4 1024.4 0.0
27/12:30pm 14.2 10.0 8.4 68 2.9 W 20 33 11 18 1024.5 1024.5 0.0
27/12:00pm 14.1 9.2 8.3 68 2.9 W 24 32 13 17 1024.8 1024.8 0.0
27/11:30am 13.9 9.9 8.1 68 2.9 WNW 19 32 10 17 1024.9 1024.9 0.0
27/11:00am 13.7 9.5 8.1 69 2.8 W 20 30 11 16 1025.0 1025.0 0.0
27/10:30am 14.3 12.1 9.3 72 2.6 N 11 19 6 10 1024.8 1024.8 0.0
27/10:00am 12.8 10.3 8.3 74 2.2 S 11 20 6 11 1024.6 1024.6 0.0
27/09:30am 13.3 9.1 7.3 67 2.9 WNW 19 32 10 17 1024.7 1024.7 0.0
27/09:00am 12.8 9.4 7.7 71 2.5 NW 15 24 8 13 1024.8 1024.8 0.2
27/08:30am 12.3 8.9 7.6 73 2.3 S 15 28 8 15 1024.7 1024.7 0.2
27/08:00am 12.4 9.8 7.7 73 2.3 N 11 17 6 9 1024.4 1024.4 0.2
27/07:30am 11.9 8.7 7.0 72 2.4 NE 13 19 7 10 1024.2 1024.2 0.2
27/07:00am 12.0 8.6 6.1 67 2.8 E 13 22 7 12 1023.9 1023.9 0.2
27/06:30am 11.9 8.5 6.0 67 2.8 ESE 13 20 7 11 1023.8 1023.8 0.2
27/06:00am 11.7 8.4 6.2 69 2.6 SSE 13 22 7 12 1023.8 1023.8 0.2
27/05:30am 11.9 6.3 7.0 72 2.4 S 26 35 14 19 1023.8 1023.8 0.2
27/05:17am 11.9 7.0 7.0 72 2.4 SSE 22 43 12 23 1023.5 1023.5 0.2
27/05:00am 12.3 8.6 6.4 67 2.8 SE 15 30 8 16 1023.2 1023.2 0.2
27/04:30am 12.3 8.1 5.5 63 3.2 SSE 17 32 9 17 1022.8 1022.8 0.2
27/04:00am 12.1 8.0 6.2 67 2.8 SSE 17 30 9 16 1022.7 1022.7 0.2
27/03:30am 11.9 5.4 4.6 61 3.3 S 28 35 15 19 1023.1 1023.1 0.2
27/03:00am 12.3 6.8 6.1 66 2.9 S 24 39 13 21 1023.1 1023.1 0.2
27/02:30am 12.3 5.7 4.0 57 3.7 S 28 37 15 20 1023.1 1023.1 0.2
27/02:00am 12.3 5.3 4.3 58 3.6 S 30 39 16 21 1023.2 1023.2 0.2
27/01:30am 12.1 5.9 4.3 59 3.5 S 26 37 14 20 1022.9 1022.9 0.2
27/01:00am 12.1 5.0 3.6 56 3.8 S 30 43 16 23 1022.9 1022.9 0.2
27/12:30am 12.2 5.1 3.7 56 3.8 S 30 41 16 22 1022.9 1022.9 0.2
27/12:00am 12.1 4.9 2.8 53 4.1 S 30 43 16 23 1022.9 1022.9 0.2
 
Date/Time
EST
Temp
°C
App
Temp
°C
Dew
Point
°C
Rel
Hum
%
Delta-T
°C
Wind Press
QNH
hPa
Press
MSL
hPa
Rain since
9am
mm
Dir  Spd
km/h
Gust
km/h
Spd
kts
Gust
kts
26/11:30pm 12.2 5.2 4.2 58 3.6 S 30 41 16 22 1022.7 1022.7 0.2
26/11:00pm 12.1 5.1 4.3 59 3.5 S 30 43 16 23 1022.6 1022.6 0.2
26/10:51pm 12.2 4.8 3.9 57 3.7 S 32 50 17 27 1022.6 1022.6 0.2
26/10:30pm 12.2 4.1 3.4 55 3.9 S 35 48 19 26 1022.6 1022.6 0.2
26/10:00pm 12.2 4.5 3.4 55 3.9 S 33 52 18 28 1022.4 1022.4 0.2
26/09:33pm 11.7 4.1 5.6 66 2.8 S 35 54 19 29 1021.9 1021.9 0.2
26/09:30pm 12.4 4.8 5.8 64 3.1 S 35 50 19 27 1022.0 1022.0 0.2
26/09:00pm 11.9 4.4 4.2 59 3.5 S 33 48 18 26 1021.9 1021.9 0.2
26/08:43pm 11.9 4.7 6.0 67 2.8 S 33 56 18 30 1021.7 1021.7 0.2
26/08:30pm 11.8 3.9 4.3 60 3.4 S 35 46 19 25 1021.7 1021.7 0.2
26/08:18pm 11.9 3.8 5.3 64 3.1 S 37 56 20 30 1021.6 1021.6 0.2
26/08:00pm 12.3 4.7 5.9 65 3.0 S 35 50 19 27 1021.4 1021.4 0.2
26/07:35pm 12.0 5.2 5.0 62 3.2 S 30 50 16 27 1021.3 1021.3 0.2
26/07:30pm 12.0 6.0 5.4 64 3.1 S 26 39 14 21 1021.2 1021.2 0.2
26/07:02pm 11.5 4.3 5.2 65 2.9 S 32 50 17 27 1021.0 1021.0 0.2
26/07:00pm 11.7 5.1 6.2 69 2.6 S 30 44 16 24 1020.9 1020.9 0.2
26/06:31pm 11.9 4.0 6.0 67 2.8 S 37 59 20 32 1020.6 1020.6 0.2
26/06:30pm 12.1 4.3 4.8 61 3.3 S 35 52 19 28 1020.5 1020.5 0.2
26/06:00pm 11.9 3.4 5.1 63 3.1 S 39 57 21 31 1020.1 1020.1 0.2
26/05:30pm 11.5 5.1 5.2 65 2.9 S 28 50 15 27 1019.9 1019.9 0.2
26/05:01pm 10.9 0.7 5.4 69 2.5 S 48 72 26 39 1019.8 1019.8 0.2
26/05:00pm 10.8 0.6 5.1 68 2.6 S 48 72 26 39 1019.7 1019.7 0.2
26/04:56pm 11.4 3.4 5.9 69 2.6 S 37 72 20 39 1019.6 1019.6 0.2
26/04:30pm 12.0 5.2 5.0 62 3.2 S 30 50 16 27 1019.2 1019.2 0.2
26/04:00pm 12.3 4.8 4.3 58 3.6 S 33 52 18 28 1019.0 1019.0 0.2
26/03:30pm 12.5 6.1 5.0 60 3.5 S 28 50 15 27 1018.6 1018.6 0.2
26/03:28pm 12.6 6.3 5.5 62 3.3 S 28 50 15 27 1018.5 1018.5 0.2
26/03:00pm 12.1 6.8 4.8 61 3.3 SE 22 41 12 22 1018.3 1018.3 0.2
26/02:30pm 11.6 7.2 6.5 71 2.4 ENE 19 32 10 17 1018.1 1018.1 0.2
26/02:00pm 11.8 6.4 4.5 61 3.3 SE 22 43 12 23 1018.1 1018.1 0.2
26/01:30pm 11.5 4.3 4.9 64 3.0 S 32 63 17 34 1018.2 1018.2 0.2
26/01:10pm 11.8 5.5 5.9 67 2.8 S 28 46 15 25 1018.1 1018.1 0.2
26/01:00pm 10.4 4.8 5.6 72 2.2 SSE 24 50 13 27 1018.2 1018.2 0.2
26/12:45pm 12.2 6.5 4.9 61 3.4 SSE 24 52 13 28 1017.9 1017.9 0.0
26/12:30pm 12.0 6.0 3.5 56 3.8 SSE 24 48 13 26 1018.1 1018.1 0.0
26/12:21pm 11.8 4.3 3.3 56 3.8 S 32 50 17 27 1018.0 1018.0 0.0
26/12:00pm 11.6 3.7 4.6 62 3.2 S 35 50 19 27 1018.3 1018.3 0.0
26/11:30am 11.6 2.3 2.9 55 3.8 S 41 67 22 36 1018.1 1018.1 0.0
26/11:11am 11.7 3.9 5.1 64 3.0 S 35 57 19 31 1017.9 1017.9 0.0
26/11:00am 10.1 0.6 3.8 65 2.8 S 43 65 23 35 1017.9 1017.9 0.0
26/10:53am 10.9 -0.1 5.0 67 2.7 S 52 76 28 41 1017.7 1017.7 0.0
26/10:48am 10.8 0.6 5.1 68 2.6 S 48 76 26 41 1017.5 1017.5 0.0
26/10:47am 10.9 1.1 5.2 68 2.6 S 46 76 25 41 1017.5 1017.5 0.0
26/10:31am 12.3 3.4 3.3 54 4.0 S 39 57 21 31 1017.0 1017.0 0.0
26/10:30am 12.2 2.8 2.6 52 4.2 S 41 57 22 31 1017.0 1017.0 0.0
26/10:07am 11.9 1.0 1.3 48 4.5 S 48 67 26 36 1016.9 1016.9 0.0
26/10:00am 11.6 -0.3 2.1 52 4.1 S 54 70 29 38 1016.7 1016.7 0.0
26/09:36am 12.1 2.0 1.4 48 4.5 S 44 63 24 34 1016.2 1016.2 0.0
26/09:30am 11.6 0.1 0.1 45 4.7 S 50 65 27 35 1016.1 1016.1 0.0
26/09:00am 11.5 1.7 3.3 57 3.6 S 44 65 24 35 1015.5 1015.5 10.4
26/08:33am 11.4 2.7 4.2 61 3.2 S 39 57 21 31 1015.0 1015.0 10.4
26/08:30am 11.5 2.4 4.0 60 3.4 S 41 57 22 31 1014.9 1014.9 10.4
26/08:20am 11.4 2.4 4.4 62 3.2 S 41 59 22 32 1014.7 1014.7 10.4
26/08:00am 11.1 1.6 4.8 65 2.9 S 44 59 24 32 1014.3 1014.2 10.4
26/07:45am 10.9 1.9 4.8 66 2.8 S 41 59 22 32 1013.9 1013.8 10.4
26/07:30am 10.8 1.8 4.3 64 2.9 S 41 57 22 31 1013.6 1013.5 10.4
26/07:00am 9.7 0.5 5.5 75 1.9 SSE 43 61 23 33 1013.0 1012.9 10.4
26/06:55am 9.3 -0.5 5.3 76 1.8 SSE 46 67 25 36 1013.0 1012.9 10.4
26/06:51am 9.2 -1.4 5.0 75 1.9 S 50 74 27 40 1013.1 1013.0 10.4
26/06:42am 10.0 -2.7 5.2 72 2.2 S 61 83 33 45 1012.6 1012.5 10.2
26/06:36am 10.9 0.7 5.0 67 2.7 S 48 83 26 45 1012.3 1012.2 10.2
26/06:30am 11.9 2.5 5.5 65 3.0 S 44 65 24 35 1012.1 1012.0 10.2
26/06:00am 11.6 1.3 2.6 54 3.9 S 46 67 25 36 1011.6 1011.5 10.2
26/05:32am 11.8 2.2 3.3 56 3.8 S 43 61 23 33 1010.9 1010.8 10.2
26/05:30am 11.8 2.0 3.1 55 3.8 S 44 61 24 33 1010.9 1010.8 10.2
26/05:06am 11.9 1.7 3.4 56 3.8 S 46 65 25 35 1010.3 1010.2 10.2
26/05:00am 11.7 1.5 3.2 56 3.8 S 46 61 25 33 1010.1 1010.0 10.2
26/04:30am 12.0 2.2 5.2 63 3.1 S 46 65 25 35 1009.3 1009.2 10.2
26/04:25am 11.8 2.0 5.2 64 3.0 S 46 65 25 35 1009.3 1009.2 10.2
26/04:00am 11.4 1.0 4.4 62 3.2 S 48 61 26 33 1008.9 1008.8 10.2
26/03:30am 11.1 0.8 6.3 72 2.3 S 50 69 27 37 1008.4 1008.3 10.2
26/03:05am 11.2 0.3 5.7 69 2.6 S 52 70 28 38 1008.2 1008.1 10.2
26/03:00am 11.2 -0.4 5.7 69 2.6 S 56 72 30 39 1008.3 1008.2 10.2
26/02:34am 11.3 1.6 6.0 70 2.5 S 46 65 25 35 1007.7 1007.6 10.2
26/02:30am 11.4 1.4 6.3 71 2.4 S 48 63 26 34 1007.6 1007.5 10.2
26/02:00am 10.8 0.6 6.9 77 1.9 S 50 69 27 37 1007.3 1007.2 10.2
26/01:58am 11.1 1.0 7.4 78 1.8 S 50 69 27 37 1007.1 1007.0 10.2
26/01:45am 11.1 2.5 8.3 83 1.4 S 43 70 23 38 1007.0 1006.9 10.2
26/01:30am 10.4 3.3 8.0 85 1.2 S 35 59 19 32 1006.9 1006.8 10.0
26/01:13am 10.0 3.3 7.4 84 1.2 S 32 52 17 28 1006.9 1006.8 9.6
26/01:00am 9.8 4.6 7.4 85 1.1 SSE 24 50 13 27 1006.7 1006.6 9.6
26/12:47am 10.2 3.8 7.1 81 1.5 ESE 30 48 16 26 1006.0 1005.9 8.6
26/12:44am 10.6 3.8 6.9 78 1.8 S 32 46 17 25 1006.0 1005.9 8.2
26/12:30am 11.8 3.6 8.1 78 1.8 S 41 56 22 30 1006.3 1006.2 7.8
26/12:00am 11.5 6.0 9.2 86 1.2 SSE 28 48 15 26 1005.9 1005.8 7.8
 
Date/Time
EST
Temp
°C
App
Temp
°C
Dew
Point
°C
Rel
Hum
%
Delta-T
°C
Wind Press
QNH
hPa
Press
MSL
hPa
Rain since
9am
mm
Dir  Spd
km/h
Gust
km/h
Spd
kts
Gust
kts
25/11:54pm 11.1 6.3 9.0 87 1.0 SSE 24 48 13 26 1005.8 1005.7 7.8
25/11:51pm 10.9 5.7 9.0 88 0.9 SSE 26 46 14 25 1005.6 1005.5 7.8
25/11:30pm 10.5 4.1 8.6 88 0.9 SE 32 57 17 31 1006.1 1006.0 7.6
25/11:27pm 10.9 6.1 9.0 88 0.9 NE 24 57 13 31 1006.0 1005.9 7.4
25/11:26pm 11.0 7.0 8.9 87 1.0 NE 20 57 11 31 1006.0 1005.9 7.0
25/11:00pm 11.3 6.9 9.0 86 1.2 E 22 50 12 27 1005.3 1005.2 6.0
25/10:34pm 11.1 5.6 9.0 87 1.0 ENE 28 46 15 25 1005.2 1005.1 5.2
25/10:30pm 11.5 6.1 9.6 88 1.0 E 28 61 15 33 1005.1 1005.0 5.2
25/10:22pm 11.4 4.7 9.5 88 1.0 SSE 35 61 19 33 1004.9 1004.8 5.2
25/10:21pm 11.5 4.8 9.6 88 1.0 SSE 35 59 19 32 1005.0 1004.9 5.0
25/10:00pm 11.5 4.4 9.6 88 1.0 S 37 57 20 31 1004.6 1004.5 5.0
25/09:59pm 11.5 4.8 9.6 88 1.0 S 35 57 19 31 1004.7 1004.6 4.8
25/09:51pm 12.5 6.6 10.4 87 1.1 WNW 32 59 17 32 1004.4 1004.3 4.8
25/09:47pm 12.8 6.4 10.7 87 1.1 WNW 35 59 19 32 1004.5 1004.4 4.6
25/09:34pm 12.7 5.6 9.5 81 1.6 WNW 37 57 20 31 1004.7 1004.6 3.4
25/09:33pm 12.6 5.0 9.1 79 1.8 WNW 39 57 21 31 1004.8 1004.7 3.2
25/09:31pm 13.5 6.1 9.9 79 1.9 WNW 39 57 21 31 1004.4 1004.3 3.0
25/09:30pm 13.6 6.2 9.8 78 2.0 WNW 39 57 21 31 1004.4 1004.3 2.8
25/09:23pm 14.7 8.1 9.9 73 2.5 WNW 35 56 19 30 1004.7 1004.6 2.6
25/09:00pm 14.9 7.5 9.7 71 2.7 WNW 39 50 21 27 1004.9 1004.8 2.6
25/08:30pm 14.9 7.6 10.1 73 2.5 WNW 39 57 21 31 1005.1 1005.0 2.6
25/08:00pm 14.8 6.7 10.2 74 2.4 WNW 43 63 23 34 1005.2 1005.1 2.6
25/07:30pm 14.4 8.3 11.9 85 1.3 WNW 35 54 19 29 1005.3 1005.2 2.6
25/07:07pm 14.1 8.7 12.1 88 1.1 WNW 32 52 17 28 1005.4 1005.3 2.6
25/07:00pm 14.0 8.9 12.0 88 1.1 WNW 30 44 16 24 1005.5 1005.4 2.6
25/06:41pm 14.7 9.5 12.7 88 1.1 WNW 32 50 17 27 1005.4 1005.3 1.6
25/06:30pm 14.4 9.0 12.8 90 0.9 WNW 33 44 18 24 1005.6 1005.5 1.6
25/06:00pm 14.1 9.9 12.3 89 1.0 WNW 26 35 14 19 1005.5 1005.4 0.8
25/05:30pm 13.6 9.3 12.0 90 0.9 WNW 26 35 14 19 1005.6 1005.5 0.8
25/05:00pm 13.4 9.8 11.8 90 0.9 W 22 32 12 17 1005.9 1005.8 0.8
25/04:30pm 12.9 6.6 11.1 89 0.9 W 35 54 19 29 1006.4 1006.3 0.6
25/04:20pm 13.4 7.8 11.5 88 1.0 W 32 54 17 29 1006.3 1006.2 0.2
25/04:00pm 14.5 8.5 12.0 85 1.4 WNW 35 50 19 27 1006.2 1006.1 0.2
25/03:30pm 15.0 9.0 12.1 83 1.6 W 35 57 19 31 1006.1 1006.0 0.2
25/03:26pm 15.2 10.6 12.3 83 1.6 W 28 46 15 25 1006.2 1006.1 0.2
25/03:00pm 16.6 13.1 13.3 81 1.9 WNW 24 35 13 19 1006.2 1006.1 0.2
25/02:30pm 17.2 14.3 12.9 76 2.4 WNW 20 28 11 15 1006.7 1006.6 0.2
25/02:00pm 17.8 15.7 13.5 76 2.4 WNW 17 22 9 12 1007.0 1006.9 0.2
25/01:30pm 18.0 15.7 14.1 78 2.2 WNW 19 28 10 15 1007.6 1007.5 0.2
25/01:00pm 17.6 16.1 14.3 81 1.9 WNW 15 20 8 11 1008.1 1008.0 0.2
25/12:30pm 16.5 14.9 12.7 78 2.1 W 13 22 7 12 1008.8 1008.7 0.2
25/12:00pm 17.4 15.4 13.9 80 2.0 WNW 17 20 9 11 1009.1 1009.0 0.0
25/11:30am 17.2 15.2 13.9 81 1.9 WNW 17 22 9 12 1009.8 1009.7 0.0
25/11:00am 16.3 14.5 13.4 83 1.6 WNW 15 22 8 12 1009.9 1009.8 0.0
25/10:30am 16.2 14.9 13.7 85 1.4 W 13 17 7 9 1010.0 1009.9 0.0
25/10:00am 16.0 15.3 14.2 89 1.0 W 11 17 6 9 1010.1 1010.0 0.0
25/09:30am 14.9 14.2 13.3 90 0.9 WNW 9 15 5 8 1010.2 1010.1 0.0
25/09:00am 15.1 14.5 13.6 91 0.8 N 9 15 5 8 1010.5 1010.4 8.4
25/08:30am 14.5 13.4 13.2 92 0.7 NE 11 17 6 9 1010.3 1010.2 8.4
25/08:00am 14.4 14.1 13.3 93 0.6 NE 7 13 4 7 1010.0 1009.9 8.4
25/07:30am 14.1 13.3 13.0 93 0.6 NNE 9 11 5 6 1009.7 1009.6 8.4
25/07:00am 14.1 13.3 13.0 93 0.6 NE 9 17 5 9 1009.5 1009.4 8.4
25/06:30am 14.8 13.2 13.8 94 0.6 W 15 19 8 10 1009.5 1009.4 8.4
25/06:00am 14.4 13.8 13.4 94 0.6 W 9 13 5 7 1009.5 1009.4 8.4
25/05:30am 14.3 14.2 13.3 94 0.6 NNE 6 9 3 5 1009.4 1009.3 8.4
25/05:00am 14.1 13.9 13.1 94 0.6 SW 6 9 3 5 1009.2 1009.1 8.4
25/04:30am 14.1 13.7 13.1 94 0.6 S 7 13 4 7 1009.1 1009.0 8.4
25/04:00am 14.1 12.6 13.1 94 0.6 S 13 17 7 9 1009.4 1009.3 8.2
25/03:30am 14.2 12.0 13.2 94 0.6 S 17 22 9 12 1009.4 1009.3 7.2
25/03:00am 14.8 15.2 13.8 94 0.6 E 4 7 2 4 1009.4 1009.3 6.8
25/02:30am 14.6 15.7 13.6 94 0.6 CALM 0 0 0 0 1009.6 1009.5 6.0
25/02:00am 14.7 15.9 13.7 94 0.6 CALM 0 0 0 0 1009.9 1009.8 5.8
25/01:30am 14.8 14.9 13.8 94 0.6 ESE 6 7 3 4 1010.0 1009.9 5.8
25/01:00am 14.8 14.7 13.8 94 0.6 ESE 7 9 4 5 1010.3 1010.2 5.8
25/12:30am 14.9 14.4 13.9 94 0.6 ESE 9 11 5 6 1010.6 1010.5 5.8
25/12:00am 15.0 14.6 14.0 94 0.6 E 9 11 5 6 1011.0 1010.9 5.8
 
Date/Time
EST
Temp
°C
App
Temp
°C
Dew
Point
°C
Rel
Hum
%
Delta-T
°C
Wind Press
QNH
hPa
Press
MSL
hPa
Rain since
9am
mm
Dir  Spd
km/h
Gust
km/h
Spd
kts
Gust
kts
24/11:30pm 15.0 14.2 14.0 94 0.6 E 11 15 6 8 1011.2 1011.1 5.8
24/11:00pm 15.0 13.8 14.0 94 0.6 E 13 15 7 8 1011.7 1011.6 5.6
24/10:30pm 15.1 13.9 14.1 94 0.6 E 13 17 7 9 1012.0 1011.9 5.4
24/10:00pm 14.8 13.2 13.8 94 0.6 E 15 20 8 11 1012.2 1012.1 5.4
24/09:30pm 14.9 12.5 13.9 94 0.6 E 19 22 10 12 1012.2 1012.1 5.4
24/09:00pm 14.9 13.3 13.9 94 0.6 E 15 19 8 10 1012.5 1012.4 5.4
24/08:30pm 14.8 12.8 13.8 94 0.6 E 17 20 9 11 1012.8 1012.7 5.4
24/08:00pm 14.9 12.9 13.9 94 0.6 E 17 20 9 11 1013.2 1013.1 5.4
24/07:30pm 14.7 12.6 13.7 94 0.6 E 17 20 9 11 1013.5 1013.4 5.4
24/07:00pm 14.8 12.8 13.8 94 0.6 E 17 22 9 12 1013.6 1013.5 5.4
24/06:30pm 14.9 13.3 13.9 94 0.6 E 15 17 8 9 1013.6 1013.5 5.4
24/06:00pm 15.0 14.2 14.0 94 0.6 E 11 15 6 8 1013.8 1013.7 5.4
24/05:30pm 15.1 13.6 14.1 94 0.6 E 15 19 8 10 1013.7 1013.6 5.2
24/05:00pm 15.1 13.5 14.0 93 0.6 E 15 20 8 11 1013.9 1013.8 5.0
24/04:30pm 15.0 13.8 13.9 93 0.6 E 13 17 7 9 1014.2 1014.1 4.8
24/04:00pm 15.0 13.8 13.9 93 0.6 E 13 19 7 10 1014.3 1014.2 4.2
24/03:30pm 15.1 14.6 13.8 92 0.7 ENE 9 13 5 7 1014.7 1014.7 2.6

Other Formats:

Comma delimited format used in spreadsheet applications
http://www.bom.gov.au/fwo/IDV60801/IDV60801.94826.axf

JavaScript Object Notation format (JSON) in row-major order
http://www.bom.gov.au/fwo/IDV60801/IDV60801.94826.json